Latest Weather Observations for Coolangatta

IDQ60901

Issued at 7:01 am EST Wednesday 22 February 2017 (issued every 10 minutes, with the page automatically refreshed every 10 minutes)

About weather observations | Map of Brisbane area stations | Latest observations for Brisbane area | Other Formats
Station Details ID: 040717 Name: COOLANGATTA Lat: -28.17 Lon: 153.51 Height: 4.0 m
Data from the previous 72 hours. | See also: Recent months at Coolangatta
Date/Time
EST
Temp
°C
App
Temp
°C
Dew
Point
°C
Rel
Hum
%
Delta-T
°C
Wind Press
QNH
hPa
Press
MSL
hPa
Rain since
9am
mm
Dir  Spd
km/h
Gust
km/h
Spd
kts
Gust
kts
22/06:30am 22.9 22.9 18.2 75 2.9 SSW 15 20 8 11 1019.3 1019.2 0.2
22/06:00am 22.7 22.8 18.3 76 2.8 SSW 15 19 8 10 1018.8 1018.7 0.2
22/05:30am 22.4 22.8 18.2 77 2.6 SSW 13 19 7 10 1018.7 1018.6 0.2
22/05:00am 22.3 22.8 18.3 78 2.5 SSW 13 17 7 9 1018.6 1018.5 0.2
22/04:30am 22.4 23.4 18.6 79 2.4 S 11 15 6 8 1017.9 1017.8 0.2
22/04:00am 22.1 23.0 18.5 80 2.3 S 11 17 6 9 1017.9 1017.8 0.2
22/03:30am 22.0 23.3 18.4 80 2.3 S 9 13 5 7 1017.8 1017.7 0.2
22/03:00am 21.7 23.0 18.5 82 2.0 S 9 13 5 7 1017.6 1017.5 0.2
22/02:30am 21.9 22.6 17.9 78 2.5 SSW 11 15 6 8 1017.5 1017.4 0.0
22/02:00am 22.6 24.0 17.7 74 3.0 SSW 7 13 4 7 1017.6 1017.5 0.0
22/01:30am 22.7 23.8 18.0 75 2.9 SSW 9 11 5 6 1017.7 1017.6 0.0
22/01:00am 22.8 23.8 17.7 73 3.2 SSW 9 11 5 6 1018.0 1017.9 0.0
22/12:30am 22.9 24.3 17.8 73 3.2 SSW 7 11 4 6 1018.2 1018.1 0.0
22/12:00am 22.9 23.9 17.8 73 3.2 S 9 13 5 7 1018.4 1018.3 0.0
 
Date/Time
EST
Temp
°C
App
Temp
°C
Dew
Point
°C
Rel
Hum
%
Delta-T
°C
Wind Press
QNH
hPa
Press
MSL
hPa
Rain since
9am
mm
Dir  Spd
km/h
Gust
km/h
Spd
kts
Gust
kts
21/11:30pm 23.1 24.1 17.8 72 3.3 S 9 15 5 8 1018.6 1018.5 0.0
21/11:00pm 23.0 23.7 17.9 73 3.2 S 11 15 6 8 1018.7 1018.6 0.0
21/10:30pm 23.1 24.1 17.8 72 3.3 SSW 9 13 5 7 1019.3 1019.2 0.0
21/10:00pm 23.6 24.3 18.0 71 3.5 SSW 11 15 6 8 1019.3 1019.2 0.0
21/09:30pm 23.2 24.7 18.1 73 3.2 S 7 11 4 6 1019.4 1019.3 0.0
21/09:00pm 23.6 24.3 18.0 71 3.5 SSW 11 17 6 9 1019.4 1019.3 0.0
21/08:30pm 23.9 24.3 18.1 70 3.6 S 13 15 7 8 1019.1 1019.0 0.0
21/08:00pm 24.1 24.5 18.1 69 3.8 S 13 17 7 9 1019.0 1018.9 0.0
21/07:30pm 24.6 24.9 17.8 66 4.3 SSE 13 19 7 10 1018.7 1018.6 0.0
21/07:00pm 25.0 24.5 17.7 64 4.6 SSE 17 22 9 12 1018.4 1018.3 0.0
21/06:30pm 25.3 24.5 17.0 60 5.1 SE 17 24 9 13 1018.2 1018.1 0.0
21/06:00pm 25.7 24.0 17.1 59 5.3 SE 22 28 12 15 1017.7 1017.6 0.0
21/05:30pm 26.4 24.1 16.6 55 6.1 SE 24 33 13 18 1017.4 1017.3 0.0
21/05:00pm 27.0 24.2 16.3 52 6.6 SE 26 35 14 19 1017.1 1017.0 0.0
21/04:30pm 27.2 25.0 16.8 53 6.5 SE 24 35 13 19 1016.8 1016.7 0.0
21/04:00pm 27.6 24.1 17.5 54 6.4 SE 32 39 17 21 1016.7 1016.6 0.0
21/03:30pm 27.3 24.8 18.0 56 5.9 SE 28 39 15 21 1016.6 1016.5 0.0
21/03:15pm 28.0 25.8 19.5 60 5.5 SE 30 48 16 26 1016.6 1016.5 0.0
21/03:00pm 27.4 24.5 18.9 59 5.5 SE 32 41 17 22 1016.4 1016.3 0.0
21/02:30pm 28.3 25.6 19.2 57 5.9 SE 32 43 17 23 1016.4 1016.3 0.0
21/02:00pm 28.5 26.3 18.6 55 6.3 SE 28 39 15 21 1016.4 1016.3 0.0
21/01:30pm 29.4 27.0 18.2 51 7.2 SE 28 35 15 19 1016.5 1016.4 0.0
21/01:00pm 29.8 27.0 18.3 50 7.4 SE 30 39 16 21 1016.4 1016.3 0.0
21/12:30pm 30.2 28.1 18.9 50 7.3 SE 28 37 15 20 1016.9 1016.8 0.0
21/12:00pm 29.2 26.6 18.6 52 6.8 ESE 30 37 16 20 1017.0 1016.9 0.0
21/11:30am 29.6 27.3 18.4 51 7.2 ESE 28 39 15 21 1017.1 1017.0 0.0
21/11:00am 29.7 27.9 18.8 52 7.0 ESE 26 32 14 17 1017.3 1017.2 0.0
21/10:30am 29.5 27.9 18.3 51 7.2 ESE 24 32 13 17 1017.6 1017.5 0.0
21/10:00am 29.1 28.1 17.9 50 7.1 SE 20 28 11 15 1017.7 1017.6 0.0
21/09:30am 27.7 27.3 18.1 56 6.1 SE 17 24 9 13 1017.8 1017.7 0.0
21/09:00am 26.8 27.9 19.7 65 4.6 SSE 13 17 7 9 1017.6 1017.5 0.2
21/08:30am 26.6 27.8 20.0 67 4.3 S 13 19 7 10 1017.4 1017.3 0.2
21/08:00am 27.0 28.3 20.1 66 4.5 SSE 13 19 7 10 1017.2 1017.1 0.2
21/07:30am 26.2 27.9 20.1 69 4.0 S 11 15 6 8 1016.9 1016.8 0.2
21/07:00am 25.0 27.7 20.7 77 2.8 SW 7 9 4 5 1016.5 1016.4 0.2
21/06:30am 23.2 26.1 20.7 86 1.6 SW 6 7 3 4 1016.0 1015.9 0.2
21/06:00am 21.9 24.6 20.2 90 1.1 SW 6 7 3 4 1015.5 1015.4 0.2
21/05:30am 21.7 24.4 20.3 92 0.9 SSW 6 9 3 5 1015.1 1015.0 0.2
21/05:00am 21.7 24.1 20.0 90 1.1 SSW 7 7 4 4 1014.7 1014.6 0.2
21/04:30am 22.0 24.4 20.1 89 1.2 SW 7 9 4 5 1014.3 1014.2 0.2
21/04:00am 21.9 25.6 20.0 89 1.2 CALM 0 7 0 4 1014.1 1014.0 0.2
21/03:30am 22.5 25.2 20.2 87 1.5 SSW 6 9 3 5 1014.0 1013.9 0.2
21/03:00am 22.5 25.3 20.4 88 1.4 SSW 6 7 3 4 1014.0 1013.9 0.2
21/02:30am 22.3 25.0 20.6 90 1.1 SSW 7 9 4 5 1013.9 1013.8 0.2
21/02:00am 22.3 24.9 20.4 89 1.2 WSW 7 9 4 5 1014.0 1013.9 0.2
21/01:30am 22.5 25.2 20.2 87 1.5 SW 6 7 3 4 1014.1 1014.0 0.2
21/01:00am 22.9 25.5 20.4 86 1.6 SSW 7 11 4 6 1014.4 1014.3 0.2
21/12:30am 23.1 25.6 20.2 84 1.9 S 7 11 4 6 1014.6 1014.5 0.2
21/12:00am 23.3 25.4 20.1 82 2.1 S 9 11 5 6 1014.7 1014.6 0.2
 
Date/Time
EST
Temp
°C
App
Temp
°C
Dew
Point
°C
Rel
Hum
%
Delta-T
°C
Wind Press
QNH
hPa
Press
MSL
hPa
Rain since
9am
mm
Dir  Spd
km/h
Gust
km/h
Spd
kts
Gust
kts
20/11:30pm 23.9 26.5 20.4 81 2.3 SSW 7 11 4 6 1014.9 1014.8 0.2
20/11:00pm 24.3 26.2 20.6 80 2.4 S 11 15 6 8 1014.7 1014.6 0.2
20/10:30pm 24.3 26.3 20.8 81 2.3 S 11 13 6 7 1014.9 1014.8 0.2
20/10:00pm 24.2 27.1 20.7 81 2.3 S 6 9 3 5 1014.8 1014.7 0.2
20/09:30pm 24.6 26.9 20.7 79 2.6 SE 9 13 5 7 1014.6 1014.5 0.2
20/09:00pm 24.1 26.7 20.4 80 2.4 S 7 9 4 5 1014.4 1014.3 0.2
20/08:30pm 24.5 27.0 20.2 77 2.8 S 7 9 4 5 1014.1 1014.0 0.2
20/08:00pm 24.6 26.8 20.3 77 2.8 SW 9 11 5 6 1013.6 1013.5 0.2
20/07:30pm 24.3 26.6 19.8 76 2.9 S 7 11 4 6 1013.0 1012.9 0.2
20/07:00pm 24.7 26.6 19.8 74 3.2 SSE 9 15 5 8 1012.7 1012.6 0.2
20/06:30pm 25.4 25.8 19.1 68 4.0 SE 15 20 8 11 1012.1 1012.0 0.2
20/06:00pm 25.7 25.9 19.3 67 4.1 SSE 17 22 9 12 1011.7 1011.6 0.2
20/05:30pm 26.7 25.9 19.3 64 4.8 SE 22 28 12 15 1011.0 1010.9 0.2
20/05:00pm 27.0 25.9 19.4 63 4.9 SE 24 32 13 17 1010.7 1010.6 0.2
20/04:30pm 26.7 25.4 19.1 63 4.9 SE 24 35 13 19 1010.2 1010.1 0.2
20/04:00pm 28.1 26.9 19.3 58 5.7 SE 24 33 13 18 1010.0 1009.9 0.2
20/03:30pm 27.9 25.0 18.0 55 6.3 SE 30 37 16 20 1009.7 1009.6 0.2
20/03:00pm 28.9 25.3 17.1 49 7.4 SE 32 41 17 22 1009.5 1009.4 0.2
20/02:30pm 29.1 25.3 16.6 46 7.8 SE 32 41 17 22 1009.6 1009.5 0.2
20/02:00pm 29.1 24.5 15.2 42 8.5 SE 33 41 18 22 1009.6 1009.5 0.2
20/01:30pm 29.3 25.4 16.5 46 8.0 ESE 32 39 17 21 1009.7 1009.6 0.2
20/01:00pm 29.3 25.5 15.8 44 8.3 ESE 30 35 16 19 1010.0 1009.9 0.2
20/12:30pm 29.8 25.4 14.0 38 9.5 ESE 30 37 16 20 1010.3 1010.2 0.2
20/12:00pm 30.3 26.7 16.3 42 8.7 ESE 30 39 16 21 1010.6 1010.5 0.2
20/11:30am 30.4 28.2 14.9 39 9.5 SE 20 28 11 15 1010.8 1010.7 0.2
20/11:00am 30.2 29.6 17.6 46 8.0 S 17 28 9 15 1011.0 1010.9 0.2
20/10:30am 29.2 29.0 17.7 50 7.3 SSW 15 20 8 11 1011.1 1011.0 0.2
20/10:00am 27.9 27.1 17.1 51 6.8 S 17 24 9 13 1011.2 1011.1 0.2
20/09:30am 27.4 26.4 16.7 52 6.7 SSW 17 22 9 12 1011.3 1011.2 0.0
20/09:00am 26.8 26.8 18.1 59 5.5 SSW 15 24 8 13 1011.2 1011.1 3.6
20/08:30am 26.0 27.3 19.2 66 4.4 SSW 11 15 6 8 1011.2 1011.1 3.6
20/08:00am 24.1 25.3 19.0 73 3.2 S 11 17 6 9 1011.0 1010.9 3.6
20/07:30am 23.5 25.7 19.6 79 2.5 SSE 7 11 4 6 1010.9 1010.8 3.6
20/07:00am 23.3 25.8 19.9 81 2.2 SSW 6 9 3 5 1010.4 1010.3 3.6
20/06:30am 21.6 23.7 20.2 92 0.9 SW 9 11 5 6 1010.1 1010.0 3.6
20/06:00am 21.4 23.7 20.7 96 0.5 SSW 9 11 5 6 1009.5 1009.4 3.6
20/05:30am 21.5 24.2 20.7 95 0.5 S 7 9 4 5 1008.8 1008.7 3.6
20/05:00am 21.8 24.9 21.0 95 0.5 WSW 6 9 3 5 1008.0 1007.9 3.6
20/04:30am 21.9 26.1 20.9 94 0.7 CALM 0 0 0 0 1008.0 1007.9 3.6
20/04:00am 21.8 24.6 20.8 94 0.7 W 7 9 4 5 1007.3 1007.2 3.6
20/03:30am 22.0 24.7 21.3 96 0.5 SW 9 13 5 7 1007.0 1006.9 3.6
20/03:00am 22.1 26.1 21.3 95 0.5 SW 2 9 1 5 1006.7 1006.6 3.6
20/02:30am 22.1 24.6 21.1 94 0.7 SW 9 15 5 8 1006.8 1006.7 3.6
20/02:00am 22.3 25.3 21.3 94 0.7 NNE 7 11 4 6 1006.6 1006.5 3.6
20/01:30am 22.3 24.7 20.9 92 0.9 ESE 9 11 5 6 1007.2 1007.1 3.6
20/01:00am 22.2 25.0 20.8 92 0.9 WSW 7 11 4 6 1008.3 1008.2 3.6
20/12:30am 22.2 24.6 20.8 92 0.9 SSW 9 15 5 8 1008.8 1008.7 3.6
20/12:00am 22.4 26.0 21.2 93 0.8 SSW 4 7 2 4 1009.2 1009.1 3.2
 
Date/Time
EST
Temp
°C
App
Temp
°C
Dew
Point
°C
Rel
Hum
%
Delta-T
°C
Wind Press
QNH
hPa
Press
MSL
hPa
Rain since
9am
mm
Dir  Spd
km/h
Gust
km/h
Spd
kts
Gust
kts
19/11:30pm 22.6 25.8 21.2 92 0.9 WSW 6 9 3 5 1009.0 1008.9 2.6
19/11:00pm 23.1 27.5 21.4 90 1.1 CALM 0 0 0 0 1009.1 1009.0 2.4
19/10:30pm 22.7 25.8 21.0 90 1.1 SW 6 9 3 5 1008.8 1008.7 2.2
19/10:00pm 22.6 25.1 21.1 91 1.0 W 9 13 5 7 1008.8 1008.7 2.2
19/09:30pm 22.7 26.3 21.2 91 1.0 WNW 4 9 2 5 1008.9 1008.8 2.2
19/09:00pm 22.7 24.1 21.0 90 1.1 WNW 15 20 8 11 1008.8 1008.7 1.4
19/08:30pm 23.1 25.6 21.0 88 1.4 WNW 9 15 5 8 1008.7 1008.6 1.0
19/08:00pm 23.7 26.4 20.6 83 2.0 NW 7 11 4 6 1007.8 1007.7 0.6
19/07:30pm 24.5 27.1 20.4 78 2.7 WNW 7 9 4 5 1007.5 1007.4 0.2
19/07:00pm 26.2 27.6 19.6 67 4.3 NW 11 17 6 9 1007.3 1007.2 0.0
19/06:30pm 26.3 29.2 22.4 79 2.6 NW 11 17 6 9 1006.9 1006.8 0.0
19/06:00pm 26.5 27.2 23.0 81 2.4 N 24 30 13 16 1006.0 1005.9 0.0
19/05:30pm 27.1 28.6 22.7 77 3.0 N 19 26 10 14 1005.6 1005.5 0.0
19/05:00pm 27.4 29.3 22.8 76 3.1 N 17 24 9 13 1005.4 1005.3 0.0
19/04:30pm 27.6 29.2 22.8 75 3.3 N 19 32 10 17 1005.6 1005.5 0.0
19/04:00pm 28.3 29.1 23.2 74 3.5 N 24 32 13 17 1005.6 1005.5 0.0
19/03:30pm 28.3 28.3 23.0 73 3.6 N 28 35 15 19 1005.5 1005.4 0.0
19/03:00pm 28.9 29.0 23.3 72 3.8 N 28 33 15 18 1005.4 1005.3 0.0
19/02:30pm 29.3 29.9 23.5 71 4.0 NNE 26 32 14 17 1005.5 1005.4 0.0
19/02:00pm 29.2 30.4 23.2 70 4.1 N 22 28 12 15 1005.7 1005.6 0.0
19/01:30pm 29.2 30.5 22.7 68 4.4 N 20 30 11 16 1006.0 1005.9 0.0
19/01:00pm 28.9 30.0 22.4 68 4.4 N 20 28 11 15 1006.2 1006.1 0.0
19/12:30pm 29.8 30.1 23.0 67 4.7 N 26 33 14 18 1006.3 1006.2 0.0
19/12:00pm 28.5 28.9 21.8 67 4.5 NNE 22 30 12 16 1006.5 1006.4 0.0
19/11:30am 28.8 28.6 21.3 64 5.0 NNE 24 30 13 16 1006.7 1006.6 0.0
19/11:00am 31.3 30.5 19.3 49 7.9 N 22 28 12 15 1006.9 1006.8 0.0
19/10:30am 31.2 29.7 18.5 46 8.2 N 24 32 13 17 1007.0 1006.9 0.0
19/10:00am 30.6 29.9 18.7 49 7.7 NNW 20 28 11 15 1007.4 1007.3 0.0
19/09:30am 29.3 28.8 18.7 52 6.8 NW 19 26 10 14 1007.7 1007.6 0.0
19/09:00am 27.0 27.1 19.1 62 5.1 NNW 17 24 9 13 1007.8 1007.7 0.0
19/08:30am 25.8 26.1 19.7 69 3.9 WNW 17 22 9 12 1007.7 1007.6 0.0
19/08:00am 25.6 26.7 19.7 70 3.8 NW 13 20 7 11 1007.7 1007.6 0.0
19/07:30am 25.3 26.1 19.9 72 3.5 NNW 15 19 8 10 1007.8 1007.7 0.0

Latest Capital City Observations: Canberra | Sydney | Melbourne | Brisbane | Adelaide | Perth | Hobart | Darwin

Other Formats:

Comma delimited format used in spreadsheet applications
http://www.bom.gov.au/fwo/IDQ60901/IDQ60901.94592.axf

JavaScript Object Notation format (JSON) in row-major order
http://www.bom.gov.au/fwo/IDQ60901/IDQ60901.94592.json